Time;durP1;ratioP1;P1;durP2;ratioP2;P2;SDS_P1;SDS_P2;PMS_P1;PMS_P2;Temp;Humidity;BMP_temperature;BMP_pressure;BME280_temperature;BME280_humidity;BME280_pressure;Samples;Min_cycle;Max_cycle;Signal;HPM_P1;HPM_P2
2020/12/05 05:00:36;;;;;;;48.63;22.63;;;2.10;99.90;;;;;;5902514;23;20234;-71
2020/12/05 05:03:10;;;;;;;34.72;21.20;;;2.10;99.90;;;;;;4975412;28;20279;-71
2020/12/05 05:05:36;;;;;;;30.77;20.55;;;2.00;99.90;;;;;;4977024;28;20215;-70
2020/12/05 05:08:02;;;;;;;34.90;19.65;;;2.00;99.90;;;;;;4976339;28;20212;-70
2020/12/05 05:10:30;;;;;;;39.45;22.98;;;2.00;99.90;;;;;;4970246;28;20249;-70
2020/12/05 05:13:04;;;;;;;37.08;20.80;;;1.90;99.90;;;;;;4939150;29;20210;-69
2020/12/05 05:15:31;;;;;;;36.15;21.60;;;1.90;99.90;;;;;;4956289;28;20197;-69
2020/12/05 05:18:00;;;;;;;37.97;22.13;;;1.90;99.90;;;;;;4955440;28;20224;-69
2020/12/05 05:20:28;;;;;;;40.70;22.10;;;1.90;99.90;;;;;;4953573;28;20249;-69
2020/12/05 05:23:09;;;;;;;34.05;20.63;;;1.90;99.90;;;;;;4951332;28;20221;-69
2020/12/05 05:25:56;;;;;;;33.67;21.92;;;1.90;99.90;;;;;;4953635;29;20215;-64
2020/12/05 05:28:26;;;;;;;37.45;20.75;;;1.90;99.90;;;;;;4951728;28;20280;-65
2020/12/05 05:30:58;;;;;;;37.80;21.08;;;1.90;99.90;;;;;;4941975;29;20249;-71
2020/12/05 05:33:25;;;;;;;32.72;19.88;;;2.00;99.90;;;;;;4948907;28;20225;-71
2020/12/05 05:35:51;;;;;;;42.00;23.20;;;2.00;99.90;;;;;;4955075;28;20660;-70
2020/12/05 05:38:24;;;;;;;40.30;23.13;;;1.90;99.90;;;;;;4952266;28;20269;-70
2020/12/05 05:40:51;;;;;;;39.13;23.75;;;2.00;99.90;;;;;;4953498;28;20240;-70
2020/12/05 05:43:19;;;;;;;36.28;21.48;;;2.00;99.90;;;;;;4955936;28;20202;-69
2020/12/05 05:45:46;;;;;;;42.20;22.70;;;1.90;99.90;;;;;;4955986;28;20215;-69
2020/12/05 05:48:12;;;;;;;36.45;21.35;;;1.90;99.90;;;;;;4956493;28;20244;-69
2020/12/05 05:50:39;;;;;;;40.22;22.48;;;1.90;99.90;;;;;;4956152;28;20303;-68
2020/12/05 05:53:07;;;;;;;40.10;23.38;;;1.90;99.90;;;;;;4956442;28;20229;-69
2020/12/05 05:55:41;;;;;;;43.95;20.73;;;1.90;99.90;;;;;;4956418;28;20205;-69
2020/12/05 05:58:08;;;;;;;45.78;23.65;;;1.90;99.90;;;;;;4956787;28;20213;-68
2020/12/05 06:00:37;;;;;;;41.70;23.27;;;1.90;99.90;;;;;;4955499;28;20440;-68
2020/12/05 06:03:16;;;;;;;44.22;23.20;;;1.90;99.90;;;;;;4956146;28;20329;-68
2020/12/05 06:05:45;;;;;;;41.78;21.10;;;1.90;99.90;;;;;;4956403;28;20264;-69
2020/12/05 06:08:15;;;;;;;35.17;20.50;;;1.90;99.90;;;;;;4955607;28;20266;-68
2020/12/05 06:10:43;;;;;;;34.10;19.83;;;1.90;99.90;;;;;;4955735;28;20654;-68
2020/12/05 06:13:14;;;;;;;32.88;20.40;;;1.90;99.90;;;;;;4956006;28;20708;-68
2020/12/05 06:15:40;;;;;;;39.83;22.42;;;1.80;99.90;;;;;;4956192;28;20209;-68
2020/12/05 06:18:07;;;;;;;46.05;24.02;;;1.70;99.90;;;;;;4956206;28;20283;-69
2020/12/05 06:20:36;;;;;;;36.38;21.98;;;1.70;99.90;;;;;;4955983;28;20288;-68
2020/12/05 06:23:07;;;;;;;40.63;22.95;;;1.70;99.90;;;;;;4955441;28;20204;-68
2020/12/05 06:25:34;;;;;;;38.53;20.77;;;1.70;99.90;;;;;;4956452;28;20579;-68
2020/12/05 06:28:03;;;;;;;34.97;19.98;;;1.70;99.90;;;;;;4956118;28;20217;-69
2020/12/05 06:30:30;;;;;;;34.60;21.48;;;1.70;99.90;;;;;;4955735;28;20225;-69
2020/12/05 06:32:57;;;;;;;34.67;21.77;;;1.70;99.90;;;;;;4955714;28;20532;-70
2020/12/05 06:35:31;;;;;;;40.63;22.70;;;1.70;99.90;;;;;;4955974;28;20268;-68
2020/12/05 06:37:57;;;;;;;34.28;20.83;;;1.70;99.90;;;;;;4956591;28;20210;-69
2020/12/05 06:40:25;;;;;;;36.17;21.05;;;1.70;99.90;;;;;;4955569;28;20198;-68
2020/12/05 06:42:52;;;;;;;43.45;22.80;;;1.70;99.90;;;;;;4955037;28;20213;-68
2020/12/05 06:45:38;;;;;;;37.03;21.20;;;1.80;99.90;;;;;;4955225;28;20693;-70
2020/12/05 06:48:34;;;;;;;35.38;20.38;;;1.70;99.90;;;;;;4955162;28;20213;-69
2020/12/05 06:51:00;;;;;;;34.95;20.65;;;1.70;99.90;;;;;;4953640;28;20229;-69
2020/12/05 06:53:34;;;;;;;38.70;21.80;;;1.60;99.90;;;;;;4955605;28;20233;-70
2020/12/05 06:56:16;;;;;;;40.10;22.98;;;1.60;99.90;;;;;;4955417;28;20556;-69
2020/12/05 06:58:42;;;;;;;39.22;21.02;;;1.60;99.90;;;;;;4955629;28;20296;-69
2020/12/05 07:01:08;;;;;;;35.45;21.67;;;1.60;99.90;;;;;;4954030;28;20696;-69
2020/12/05 07:03:34;;;;;;;38.63;22.35;;;1.60;99.90;;;;;;4955092;28;20272;-68
2020/12/05 07:06:00;;;;;;;40.17;22.13;;;1.60;99.90;;;;;;4955306;28;20205;-68
2020/12/05 07:08:29;;;;;;;41.47;21.88;;;1.60;99.90;;;;;;4955539;28;20264;-69
2020/12/05 07:10:58;;;;;;;40.33;22.10;;;1.60;99.90;;;;;;4955008;28;20260;-69
2020/12/05 07:13:28;;;;;;;41.78;23.38;;;1.60;99.90;;;;;;4954976;28;20222;-69
2020/12/05 07:16:25;;;;;;;40.80;23.20;;;1.60;99.90;;;;;;4954263;28;20244;-69
2020/12/05 07:18:53;;;;;;;42.58;23.85;;;1.60;99.90;;;;;;4895993;29;20215;-69
2020/12/05 07:21:20;;;;;;;41.22;21.23;;;1.70;99.90;;;;;;4941333;28;20271;-69
2020/12/05 07:23:47;;;;;;;41.53;22.90;;;1.70;99.90;;;;;;4954958;28;20610;-69
2020/12/05 07:26:14;;;;;;;40.72;22.83;;;1.70;99.90;;;;;;4955000;28;20584;-69
2020/12/05 07:28:45;;;;;;;49.83;25.70;;;1.80;99.90;;;;;;4954967;28;20209;-69
2020/12/05 07:31:11;;;;;;;44.42;23.73;;;1.80;99.90;;;;;;4954118;28;20229;-69
2020/12/05 07:33:39;;;;;;;41.90;22.85;;;1.80;99.90;;;;;;4954671;28;20384;-68
2020/12/05 07:36:07;;;;;;;42.90;23.70;;;1.90;99.90;;;;;;4954573;28;20206;-68
2020/12/05 07:38:34;;;;;;;43.97;24.13;;;1.90;99.90;;;;;;4955030;28;20206;-69
2020/12/05 07:41:08;;;;;;;40.47;23.20;;;2.00;99.90;;;;;;4954594;28;20233;-69
2020/12/05 07:43:35;;;;;;;44.17;23.50;;;2.00;99.90;;;;;;4954751;28;20216;-69
2020/12/05 07:46:04;;;;;;;46.30;24.10;;;2.10;99.90;;;;;;4953619;28;20268;-68
2020/12/05 07:48:30;;;;;;;43.72;24.85;;;2.10;99.90;;;;;;4954814;28;20213;-68
2020/12/05 07:50:56;;;;;;;38.88;23.23;;;2.10;99.90;;;;;;4954403;28;20228;-68
2020/12/05 07:53:31;;;;;;;39.58;24.20;;;2.10;99.90;;;;;;4954432;28;20225;-68
2020/12/05 07:55:58;;;;;;;45.63;23.10;;;2.20;99.90;;;;;;4954621;28;20263;-68
2020/12/05 07:58:24;;;;;;;42.40;23.60;;;2.20;99.90;;;;;;4954625;28;20280;-68
2020/12/05 08:00:54;;;;;;;34.80;21.92;;;2.20;99.90;;;;;;4953356;28;20577;-68
2020/12/05 08:03:52;;;;;;;41.88;24.00;;;2.30;99.90;;;;;;4953923;28;20288;-68
2020/12/05 08:06:39;;;;;;;39.78;22.67;;;2.30;99.90;;;;;;4954508;28;20284;-68
2020/12/05 08:09:06;;;;;;;37.72;21.15;;;2.30;99.90;;;;;;4954856;28;20212;-68
2020/12/05 08:11:45;;;;;;;45.63;23.45;;;2.40;99.90;;;;;;4954138;28;20233;-68
2020/12/05 08:14:12;;;;;;;39.83;22.75;;;2.40;99.90;;;;;;4954343;28;20229;-68
2020/12/05 08:16:39;;;;;;;42.92;21.73;;;2.40;99.90;;;;;;4953529;28;20205;-68
2020/12/05 08:19:07;;;;;;;36.25;19.42;;;2.40;99.90;;;;;;4954022;28;20197;-68
2020/12/05 08:21:34;;;;;;;38.97;22.85;;;2.40;99.90;;;;;;4954478;28;20251;-69
2020/12/05 08:24:08;;;;;;;38.03;21.58;;;2.40;99.90;;;;;;4954028;28;20636;-68
2020/12/05 08:26:35;;;;;;;43.83;23.13;;;2.50;99.90;;;;;;4953869;28;20209;-68
2020/12/05 08:29:01;;;;;;;36.30;22.13;;;2.50;99.90;;;;;;4954184;28;20205;-68
2020/12/05 08:31:28;;;;;;;40.60;25.35;;;2.50;99.90;;;;;;4952504;28;20284;-68
2020/12/05 08:33:54;;;;;;;39.72;23.15;;;2.60;99.90;;;;;;4953791;28;20233;-69
2020/12/05 08:36:26;;;;;;;37.80;21.85;;;2.60;99.90;;;;;;4953477;28;20257;-69
2020/12/05 08:38:56;;;;;;;37.60;21.70;;;2.60;99.90;;;;;;4954316;28;20264;-69
2020/12/05 08:41:22;;;;;;;41.22;23.15;;;2.60;99.90;;;;;;4954164;28;20237;-69
2020/12/05 08:43:48;;;;;;;41.83;21.80;;;2.60;99.90;;;;;;4953723;28;20216;-69
2020/12/05 08:46:16;;;;;;;16.27;12.55;;;2.70;99.90;;;;;;4953165;28;20256;-68
2020/12/05 08:48:42;;;;;;;34.00;21.42;;;2.70;99.90;;;;;;4954453;28;20212;-69
2020/12/05 08:51:08;;;;;;;39.85;23.58;;;2.70;99.90;;;;;;4953759;28;20653;-69
2020/12/05 08:53:35;;;;;;;36.25;22.38;;;2.70;99.90;;;;;;4953285;28;20221;-68
2020/12/05 08:56:02;;;;;;;40.60;23.92;;;2.70;99.90;;;;;;4954065;28;20272;-68
2020/12/05 08:58:42;;;;;;;44.20;22.77;;;2.70;99.90;;;;;;4954556;28;20236;-68
2020/12/05 09:01:08;;;;;;;37.42;21.15;;;2.70;99.90;;;;;;4953093;28;20243;-68
2020/12/05 09:03:37;;;;;;;42.55;23.73;;;2.70;99.90;;;;;;4954099;28;20236;-69
2020/12/05 09:06:04;;;;;;;41.92;23.17;;;2.70;99.90;;;;;;4953651;28;20268;-68
2020/12/05 09:08:30;;;;;;;39.28;22.83;;;2.70;99.90;;;;;;4953657;28;20312;-68
2020/12/05 09:10:57;;;;;;;37.85;21.17;;;2.70;99.90;;;;;;4954072;28;20274;-68
2020/12/05 09:13:24;;;;;;;38.28;22.73;;;2.70;99.90;;;;;;4954103;28;20590;-68
2020/12/05 09:15:55;;;;;;;39.75;24.30;;;2.70;99.90;;;;;;4952920;28;20209;-68
2020/12/05 09:18:21;;;;;;;42.70;22.60;;;2.70;99.90;;;;;;4954008;28;20206;-68
2020/12/05 09:20:47;;;;;;;44.22;22.33;;;2.70;99.90;;;;;;4953703;28;20237;-69
2020/12/05 09:23:13;;;;;;;38.08;22.88;;;2.70;99.90;;;;;;4953521;28;20634;-69
2020/12/05 09:25:41;;;;;;;38.97;22.98;;;2.80;99.90;;;;;;4953095;28;20268;-69
2020/12/05 09:28:10;;;;;;;38.95;21.17;;;2.80;99.90;;;;;;4953837;28;20666;-69
2020/12/05 09:30:36;;;;;;;41.00;22.58;;;2.80;99.90;;;;;;4953058;28;20256;-69
2020/12/05 09:33:09;;;;;;;35.25;20.80;;;2.80;99.90;;;;;;4952966;28;20223;-69
2020/12/05 09:35:35;;;;;;;38.42;21.42;;;2.80;99.90;;;;;;4935062;29;20548;-69
2020/12/05 09:38:02;;;;;;;39.05;21.20;;;2.80;99.90;;;;;;4934936;29;20214;-69
2020/12/05 09:40:29;;;;;;;38.25;22.52;;;2.90;99.90;;;;;;4934872;29;20637;-69
2020/12/05 09:42:55;;;;;;;36.75;22.02;;;2.80;99.90;;;;;;4951157;28;20213;-69
2020/12/05 09:45:23;;;;;;;33.15;21.17;;;2.90;99.90;;;;;;4956601;28;20268;-69
2020/12/05 09:47:49;;;;;;;36.78;21.60;;;2.90;99.90;;;;;;4956574;28;20265;-69
2020/12/05 09:50:15;;;;;;;38.58;23.75;;;2.90;99.90;;;;;;4956950;28;20295;-69
2020/12/05 09:52:41;;;;;;;32.13;21.10;;;2.90;99.90;;;;;;4957086;28;20214;-68
2020/12/05 09:55:08;;;;;;;34.80;21.33;;;2.90;99.90;;;;;;4956810;28;20639;-69
2020/12/05 09:57:34;;;;;;;33.42;21.58;;;2.90;99.90;;;;;;4956678;28;20206;-69
2020/12/05 10:00:00;;;;;;;37.45;21.58;;;2.90;99.90;;;;;;4957627;28;20281;-69
2020/12/05 10:02:27;;;;;;;32.22;20.65;;;2.90;99.90;;;;;;4955457;28;20604;-69
2020/12/05 10:04:53;;;;;;;32.92;20.55;;;3.00;99.90;;;;;;4957041;28;20212;-68
2020/12/05 10:07:19;;;;;;;38.55;22.08;;;3.00;99.90;;;;;;4956455;28;20209;-68
2020/12/05 10:09:45;;;;;;;38.65;22.30;;;3.00;99.90;;;;;;4956974;28;20618;-68
2020/12/05 10:12:12;;;;;;;34.63;20.20;;;3.00;99.90;;;;;;4956366;28;20233;-69
2020/12/05 10:14:38;;;;;;;36.70;22.35;;;3.00;99.90;;;;;;4956969;28;20656;-69
2020/12/05 10:17:04;;;;;;;33.88;21.08;;;3.00;99.90;;;;;;4956304;28;20272;-69
2020/12/05 10:19:31;;;;;;;33.58;21.02;;;3.10;99.90;;;;;;4957039;28;20280;-69
2020/12/05 10:21:57;;;;;;;34.35;21.27;;;3.10;99.90;;;;;;4956646;28;20539;-70
2020/12/05 10:24:23;;;;;;;35.78;20.50;;;3.10;99.90;;;;;;4956962;28;20209;-69
2020/12/05 10:26:49;;;;;;;37.10;20.38;;;3.10;99.90;;;;;;4956576;28;20217;-69
2020/12/05 10:29:16;;;;;;;30.85;19.30;;;3.10;99.90;;;;;;4956740;28;20209;-70
2020/12/05 10:31:45;;;;;;;30.02;18.45;;;3.20;99.90;;;;;;4954371;28;20277;-70
2020/12/05 10:34:12;;;;;;;33.40;20.60;;;3.20;99.90;;;;;;4956608;28;20252;-69
2020/12/05 10:36:39;;;;;;;32.08;20.92;;;3.20;99.90;;;;;;4955943;28;20213;-69
2020/12/05 10:39:06;;;;;;;29.83;20.35;;;3.30;99.90;;;;;;4961758;28;20217;-69
2020/12/05 10:41:32;;;;;;;28.27;19.20;;;3.30;99.90;;;;;;4961869;28;20284;-70
2020/12/05 10:43:58;;;;;;;30.77;19.70;;;3.40;99.90;;;;;;4958799;28;20316;-69
2020/12/05 10:46:24;;;;;;;30.58;19.30;;;3.40;99.90;;;;;;4955640;28;20258;-69
2020/12/05 10:48:50;;;;;;;29.60;18.83;;;3.40;99.90;;;;;;4955571;28;20253;-69
2020/12/05 10:51:17;;;;;;;32.97;20.25;;;3.50;99.90;;;;;;4955864;28;20241;-70
2020/12/05 10:53:43;;;;;;;27.67;18.20;;;3.50;99.90;;;;;;4955940;28;20228;-69
2020/12/05 10:56:10;;;;;;;27.23;17.42;;;3.50;99.90;;;;;;4954801;28;20244;-69
2020/12/05 10:58:36;;;;;;;32.08;18.05;;;3.60;99.90;;;;;;4955719;28;20209;-69
2020/12/05 11:01:02;;;;;;;31.33;19.98;;;3.60;99.90;;;;;;4954812;28;20249;-70
2020/12/05 11:03:28;;;;;;;31.10;18.77;;;3.70;99.90;;;;;;4955686;28;20205;-70
2020/12/05 11:05:54;;;;;;;28.73;17.77;;;3.70;99.90;;;;;;4955582;28;20221;-70
2020/12/05 11:08:20;;;;;;;26.02;18.63;;;3.70;99.90;;;;;;4955420;28;20213;-70
2020/12/05 11:10:47;;;;;;;23.98;16.52;;;3.80;99.90;;;;;;4955233;28;20229;-70
2020/12/05 11:13:13;;;;;;;25.98;18.10;;;3.90;99.90;;;;;;4955168;28;20205;-70
2020/12/05 11:15:40;;;;;;;26.05;17.38;;;4.00;99.90;;;;;;4954971;28;20209;-71
2020/12/05 11:18:06;;;;;;;25.10;16.65;;;4.00;99.90;;;;;;4954916;28;20598;-71
2020/12/05 11:20:32;;;;;;;23.98;17.23;;;4.10;99.90;;;;;;4954979;28;20372;-70
2020/12/05 11:22:58;;;;;;;23.50;16.48;;;4.10;99.90;;;;;;4953941;29;20205;-71
2020/12/05 11:25:24;;;;;;;26.08;16.85;;;4.10;99.90;;;;;;4955120;28;20252;-69
2020/12/05 11:27:51;;;;;;;22.67;15.63;;;4.10;99.90;;;;;;4955043;28;20221;-69
2020/12/05 11:30:17;;;;;;;25.75;17.05;;;4.10;99.90;;;;;;4954798;28;20209;-69
2020/12/05 11:32:43;;;;;;;28.05;18.17;;;4.10;99.90;;;;;;4954629;28;20288;-69
2020/12/05 11:35:09;;;;;;;22.88;16.77;;;4.10;99.90;;;;;;4955710;28;20272;-69
2020/12/05 11:37:36;;;;;;;28.70;18.20;;;4.10;99.90;;;;;;4954550;28;20201;-68
2020/12/05 11:40:02;;;;;;;21.45;15.18;;;4.20;99.90;;;;;;4954794;28;20291;-69
2020/12/05 11:42:32;;;;;;;21.48;15.45;;;4.20;99.90;;;;;;4954364;28;20589;-68
2020/12/05 11:44:59;;;;;;;22.50;14.32;;;4.20;99.90;;;;;;4954816;28;20737;-69
2020/12/05 11:47:26;;;;;;;22.98;15.68;;;4.20;99.90;;;;;;4953965;28;20240;-68
2020/12/05 11:49:52;;;;;;;23.15;15.80;;;4.20;99.90;;;;;;4954795;28;20732;-68
2020/12/05 11:52:18;;;;;;;22.05;15.93;;;4.30;99.90;;;;;;4953744;28;20237;-68
2020/12/05 11:54:44;;;;;;;21.83;15.82;;;4.30;99.90;;;;;;4954363;28;20221;-68
2020/12/05 11:57:10;;;;;;;24.27;16.25;;;4.40;99.90;;;;;;4954777;28;20205;-68
2020/12/05 11:59:39;;;;;;;25.00;16.88;;;4.40;99.90;;;;;;4954661;28;20214;-68
2020/12/05 12:02:07;;;;;;;23.17;15.25;;;4.40;99.90;;;;;;4953225;28;20241;-68
2020/12/05 12:04:33;;;;;;;22.25;15.93;;;4.50;99.90;;;;;;4954597;28;20206;-68
2020/12/05 12:06:59;;;;;;;21.30;14.75;;;4.40;99.90;;;;;;4954127;28;20213;-68
2020/12/05 12:09:26;;;;;;;21.98;14.32;;;4.50;99.90;;;;;;4954221;28;20205;-68
2020/12/05 12:11:52;;;;;;;20.48;15.23;;;4.50;99.90;;;;;;4954097;28;20605;-68
2020/12/05 12:14:18;;;;;;;24.58;16.13;;;4.50;99.90;;;;;;4954855;28;20280;-68
2020/12/05 12:16:46;;;;;;;20.98;15.75;;;4.50;99.90;;;;;;4952685;28;20209;-69
2020/12/05 12:19:13;;;;;;;18.98;14.20;;;4.50;99.90;;;;;;4954352;28;20610;-69
2020/12/05 12:21:40;;;;;;;24.13;15.90;;;4.50;99.90;;;;;;4953880;28;20709;-69
2020/12/05 12:24:06;;;;;;;20.52;15.30;;;4.50;99.90;;;;;;4954081;28;20206;-69
2020/12/05 12:26:32;;;;;;;26.15;16.48;;;4.50;99.90;;;;;;4954533;29;20212;-69
2020/12/05 12:28:58;;;;;;;22.50;14.40;;;4.60;99.90;;;;;;4954740;28;20624;-69
2020/12/05 12:31:25;;;;;;;23.23;14.95;;;4.60;99.90;;;;;;4953493;28;20288;-69
2020/12/05 12:33:51;;;;;;;18.48;14.02;;;4.60;99.90;;;;;;4954795;28;20229;-69
2020/12/05 12:36:18;;;;;;;19.13;13.57;;;4.60;99.90;;;;;;4954448;28;20217;-69
2020/12/05 12:38:45;;;;;;;21.08;14.18;;;4.60;99.90;;;;;;4954613;28;20228;-69
2020/12/05 12:41:14;;;;;;;18.48;14.07;;;4.60;99.90;;;;;;4953400;28;20780;-69
2020/12/05 12:43:40;;;;;;;18.08;12.82;;;4.60;99.90;;;;;;4954170;28;20267;-69
2020/12/05 12:46:06;;;;;;;22.08;14.70;;;4.60;99.90;;;;;;4953110;28;20632;-68
2020/12/05 12:48:39;;;;;;;17.92;13.27;;;4.60;99.90;;;;;;4954507;28;20312;-68
2020/12/05 12:51:07;;;;;;;18.75;14.00;;;4.60;99.90;;;;;;4953778;28;20702;-68
2020/12/05 12:53:34;;;;;;;22.60;15.45;;;4.60;99.90;;;;;;4954457;28;20612;-69
2020/12/05 12:56:00;;;;;;;21.35;15.27;;;4.70;99.90;;;;;;4955031;28;20213;-70
2020/12/05 12:58:34;;;;;;;16.15;12.35;;;4.70;99.90;;;;;;4955035;28;20205;-70
2020/12/05 13:01:00;;;;;;;24.92;15.48;;;4.70;99.90;;;;;;4953613;28;20237;-69
2020/12/05 13:03:27;;;;;;;21.88;15.00;;;4.60;99.90;;;;;;4954180;28;20213;-68
2020/12/05 13:05:53;;;;;;;19.15;13.55;;;4.60;99.90;;;;;;4954291;28;20219;-69
2020/12/05 13:08:19;;;;;;;20.88;14.45;;;4.60;99.90;;;;;;4954677;28;20295;-69
2020/12/05 13:10:46;;;;;;;23.00;14.02;;;4.60;99.90;;;;;;4953661;28;20233;-69
2020/12/05 13:13:12;;;;;;;22.13;14.02;;;4.60;99.90;;;;;;4954089;28;20538;-69
2020/12/05 13:15:38;;;;;;;22.95;14.00;;;4.60;99.90;;;;;;4952840;29;20287;-69
2020/12/05 13:18:05;;;;;;;21.90;14.15;;;4.60;99.90;;;;;;4953791;28;20213;-69
2020/12/05 13:20:31;;;;;;;20.13;13.52;;;4.60;99.90;;;;;;4957617;28;20226;-69
2020/12/05 13:22:57;;;;;;;20.08;14.38;;;4.60;99.90;;;;;;4956988;28;20209;-68
2020/12/05 13:25:23;;;;;;;22.25;13.90;;;4.50;99.90;;;;;;4957033;28;20206;-69
2020/12/05 13:27:50;;;;;;;22.25;13.55;;;4.50;99.90;;;;;;4957483;28;20257;-69
2020/12/05 13:30:16;;;;;;;20.50;13.68;;;4.50;99.90;;;;;;4956559;28;20610;-68
2020/12/05 13:32:42;;;;;;;19.58;13.60;;;4.50;99.90;;;;;;4956821;28;20263;-69
2020/12/05 13:35:08;;;;;;;20.52;14.25;;;4.50;99.90;;;;;;4957512;28;20313;-69
2020/12/05 13:37:34;;;;;;;20.25;13.77;;;4.50;99.90;;;;;;4957765;28;20339;-69
2020/12/05 13:40:00;;;;;;;19.23;13.20;;;4.50;99.90;;;;;;4957237;28;20260;-69
2020/12/05 13:42:27;;;;;;;18.75;13.00;;;4.50;99.90;;;;;;4957368;28;20233;-68
2020/12/05 13:44:54;;;;;;;18.08;13.40;;;4.50;99.90;;;;;;4958133;28;20339;-69
2020/12/05 13:47:20;;;;;;;16.42;14.25;;;4.50;99.90;;;;;;4960543;28;20202;-69
2020/12/05 13:49:46;;;;;;;17.15;14.68;;;4.50;99.90;;;;;;4957658;28;20275;-69
2020/12/05 13:52:12;;;;;;;19.27;13.15;;;4.50;99.90;;;;;;4957413;28;20244;-69
2020/12/05 13:54:39;;;;;;;17.20;12.68;;;4.50;99.90;;;;;;4957394;28;20271;-69
2020/12/05 13:57:05;;;;;;;18.98;13.77;;;4.60;99.90;;;;;;4957531;28;20267;-69
2020/12/05 13:59:31;;;;;;;18.90;12.35;;;4.60;99.90;;;;;;4958205;28;20260;-68
2020/12/05 14:01:59;;;;;;;20.85;13.30;;;4.60;99.90;;;;;;4955564;28;20669;-68
2020/12/05 14:04:26;;;;;;;19.27;13.60;;;4.70;99.90;;;;;;4956431;28;20260;-68
2020/12/05 14:06:52;;;;;;;16.35;12.73;;;4.70;99.90;;;;;;4957056;28;20209;-68
2020/12/05 14:09:19;;;;;;;19.42;12.93;;;4.70;99.90;;;;;;4957189;28;20208;-68
2020/12/05 14:11:45;;;;;;;21.85;14.05;;;4.80;99.90;;;;;;4956341;28;20229;-67
2020/12/05 14:14:12;;;;;;;15.93;11.98;;;4.80;99.90;;;;;;4957209;28;20260;-67
2020/12/05 14:16:38;;;;;;;18.75;13.52;;;4.80;99.90;;;;;;4955443;28;20209;-68
2020/12/05 14:19:05;;;;;;;18.63;12.82;;;4.80;99.90;;;;;;4956381;28;20213;-67
2020/12/05 14:21:31;;;;;;;15.07;12.95;;;4.80;99.90;;;;;;4956050;28;20229;-67
2020/12/05 14:23:58;;;;;;;19.83;14.30;;;4.90;99.90;;;;;;4955774;28;20692;-67
2020/12/05 14:26:25;;;;;;;18.05;13.60;;;4.90;99.90;;;;;;4956101;28;20268;-67
2020/12/05 14:28:51;;;;;;;16.77;13.25;;;4.90;99.90;;;;;;4955917;28;20603;-68
2020/12/05 14:31:18;;;;;;;22.25;14.00;;;4.90;99.90;;;;;;4954145;28;20245;-67
2020/12/05 14:33:44;;;;;;;17.27;13.90;;;4.90;99.90;;;;;;4955688;28;20206;-69
2020/12/05 14:36:14;;;;;;;19.10;14.20;;;4.90;99.90;;;;;;4956179;28;20272;-68
2020/12/05 14:38:40;;;;;;;18.65;13.13;;;4.90;99.90;;;;;;4955984;28;20205;-68
2020/12/05 14:41:08;;;;;;;16.85;13.30;;;4.90;99.90;;;;;;4956064;28;20229;-68
2020/12/05 14:43:35;;;;;;;16.50;12.40;;;4.90;99.90;;;;;;4955516;28;20221;-69
2020/12/05 14:46:01;;;;;;;16.02;12.32;;;4.90;99.90;;;;;;4955058;28;20221;-69
2020/12/05 14:48:27;;;;;;;19.80;13.30;;;4.90;99.90;;;;;;4955301;28;20264;-69
2020/12/05 14:50:54;;;;;;;20.65;14.45;;;4.90;99.90;;;;;;4955475;28;20225;-69
2020/12/05 14:53:21;;;;;;;17.20;13.70;;;4.90;99.90;;;;;;4955449;28;20358;-69
2020/12/05 14:55:47;;;;;;;18.30;13.88;;;4.80;99.90;;;;;;4955399;28;20313;-69
2020/12/05 14:58:13;;;;;;;19.25;13.45;;;4.80;99.90;;;;;;4955433;28;20218;-69
2020/12/05 15:00:39;;;;;;;23.02;15.20;;;4.70;99.90;;;;;;4954920;28;20278;-69
2020/12/05 15:03:05;;;;;;;17.52;12.75;;;4.70;99.90;;;;;;4954620;28;20213;-68
2020/12/05 15:05:31;;;;;;;21.52;14.13;;;4.70;99.90;;;;;;4955402;28;20213;-68
2020/12/05 15:07:58;;;;;;;18.60;12.27;;;4.60;99.90;;;;;;4955629;28;20260;-68
2020/12/05 15:10:25;;;;;;;18.20;12.13;;;4.60;99.90;;;;;;4955052;28;20259;-68
2020/12/05 15:12:51;;;;;;;19.20;14.13;;;4.60;99.90;;;;;;4955125;28;20727;-68
2020/12/05 15:15:17;;;;;;;21.42;13.60;;;4.60;99.90;;;;;;4955139;28;20300;-68
2020/12/05 15:17:43;;;;;;;17.42;13.27;;;4.50;99.90;;;;;;4954871;28;20269;-68
2020/12/05 15:20:10;;;;;;;21.35;13.43;;;4.50;99.90;;;;;;4956083;28;20268;-68
2020/12/05 15:22:36;;;;;;;21.88;13.32;;;4.50;99.90;;;;;;4955160;28;20238;-68
2020/12/05 15:25:03;;;;;;;17.27;13.63;;;4.40;99.90;;;;;;4956484;28;20576;-68
2020/12/05 15:27:30;;;;;;;20.42;14.20;;;4.40;99.90;;;;;;4955483;28;20205;-68
2020/12/05 15:29:56;;;;;;;18.75;13.38;;;4.40;99.90;;;;;;4955699;28;20275;-68
2020/12/05 15:32:23;;;;;;;19.50;13.93;;;4.30;99.90;;;;;;4954325;28;20363;-68
2020/12/05 15:34:49;;;;;;;15.98;12.65;;;4.30;99.90;;;;;;4954643;28;20224;-68
2020/12/05 15:37:15;;;;;;;19.23;14.25;;;4.20;99.90;;;;;;4955043;28;20651;-69
2020/12/05 15:39:42;;;;;;;20.13;14.82;;;4.10;99.90;;;;;;4955335;28;20236;-69
2020/12/05 15:42:08;;;;;;;24.45;14.88;;;4.10;99.90;;;;;;4954118;28;20238;-68
2020/12/05 15:44:35;;;;;;;18.50;14.43;;;4.10;99.90;;;;;;4955111;28;20209;-68
2020/12/05 15:47:01;;;;;;;21.50;15.07;;;4.10;99.90;;;;;;4954410;28;20242;-69
2020/12/05 15:49:29;;;;;;;25.00;16.08;;;4.00;99.90;;;;;;4954807;28;20228;-68
2020/12/05 15:51:55;;;;;;;22.52;14.82;;;4.00;99.90;;;;;;4953870;28;20315;-69
2020/12/05 15:54:22;;;;;;;18.17;13.15;;;4.00;99.90;;;;;;4954624;28;20283;-69
2020/12/05 15:56:48;;;;;;;25.17;15.23;;;4.00;99.90;;;;;;4954396;28;20673;-68
2020/12/05 15:59:14;;;;;;;21.67;14.48;;;3.90;99.90;;;;;;4955042;28;20209;-68
2020/12/05 16:01:41;;;;;;;21.45;14.18;;;3.90;99.90;;;;;;4953626;28;20603;-69
2020/12/05 16:04:07;;;;;;;22.65;15.65;;;3.90;99.90;;;;;;4954426;28;20208;-68
2020/12/05 16:06:34;;;;;;;20.25;15.50;;;3.90;99.90;;;;;;4954051;28;20205;-68
2020/12/05 16:09:00;;;;;;;23.02;15.02;;;3.90;99.90;;;;;;4954542;28;20209;-68
2020/12/05 16:11:29;;;;;;;22.88;15.40;;;3.90;99.90;;;;;;4954492;28;20241;-68
2020/12/05 16:13:55;;;;;;;24.17;15.65;;;3.80;99.90;;;;;;4954305;28;20216;-68
2020/12/05 16:16:22;;;;;;;21.13;15.15;;;3.80;99.90;;;;;;4953547;28;20647;-68
2020/12/05 16:18:49;;;;;;;20.48;14.63;;;3.80;99.90;;;;;;4954467;28;20304;-68
2020/12/05 16:21:15;;;;;;;24.05;16.80;;;3.70;99.90;;;;;;4954240;28;20263;-68
2020/12/05 16:23:41;;;;;;;24.85;15.38;;;3.70;99.90;;;;;;4953996;28;20610;-68
2020/12/05 16:26:07;;;;;;;21.27;15.10;;;3.70;99.90;;;;;;4953791;28;20213;-68
2020/12/05 16:28:33;;;;;;;27.05;15.38;;;3.60;99.90;;;;;;4954108;28;20209;-68
2020/12/05 16:31:00;;;;;;;17.05;14.95;;;3.60;99.90;;;;;;4953295;28;20665;-68
2020/12/05 16:33:27;;;;;;;18.40;13.68;;;3.60;99.90;;;;;;4953934;28;20601;-68
2020/12/05 16:35:54;;;;;;;24.25;16.05;;;3.60;99.90;;;;;;4953638;28;20228;-69
2020/12/05 16:38:20;;;;;;;23.25;16.00;;;3.60;99.90;;;;;;4954171;28;20209;-69
2020/12/05 16:40:46;;;;;;;23.27;14.90;;;3.60;99.90;;;;;;4953552;28;20323;-69
2020/12/05 16:43:12;;;;;;;24.67;16.55;;;3.50;99.90;;;;;;4953793;28;20205;-69
2020/12/05 16:45:38;;;;;;;21.25;14.77;;;3.50;99.90;;;;;;4953606;28;20217;-69
2020/12/05 16:48:05;;;;;;;17.52;14.23;;;3.50;99.90;;;;;;4953261;28;20268;-69
2020/12/05 16:50:31;;;;;;;19.25;14.60;;;3.50;99.90;;;;;;4953802;28;20225;-69
2020/12/05 16:52:58;;;;;;;21.52;15.00;;;3.50;99.90;;;;;;4953964;28;20628;-69
2020/12/05 16:55:24;;;;;;;21.40;13.85;;;3.40;99.90;;;;;;4957778;28;20272;-69
2020/12/05 16:57:50;;;;;;;20.20;14.40;;;3.40;99.90;;;;;;4958127;28;20205;-69
2020/12/05 17:00:16;;;;;;;20.50;14.30;;;3.40;99.90;;;;;;4957461;28;20627;-69
2020/12/05 17:02:42;;;;;;;22.92;15.88;;;3.40;99.90;;;;;;4957386;28;20279;-69
2020/12/05 17:05:08;;;;;;;25.05;16.90;;;3.40;99.90;;;;;;4957829;28;20248;-68
2020/12/05 17:07:35;;;;;;;22.67;16.20;;;3.40;99.90;;;;;;4957661;28;20343;-69
2020/12/05 17:10:02;;;;;;;29.58;18.27;;;3.30;99.90;;;;;;4957913;28;20209;-69
2020/12/05 17:12:28;;;;;;;25.63;17.33;;;3.40;99.90;;;;;;4956867;28;20709;-68
2020/12/05 17:14:54;;;;;;;25.30;16.67;;;3.40;99.90;;;;;;4957598;28;20324;-68
2020/12/05 17:17:20;;;;;;;25.85;16.13;;;3.40;99.90;;;;;;4956768;28;20260;-69
2020/12/05 17:19:46;;;;;;;27.33;18.85;;;3.40;99.90;;;;;;4957749;28;20209;-68
2020/12/05 17:22:12;;;;;;;32.55;18.70;;;3.40;99.90;;;;;;4957228;28;20233;-70
2020/12/05 17:24:38;;;;;;;28.10;19.40;;;3.30;99.90;;;;;;4957578;28;20233;-70
2020/12/05 17:27:05;;;;;;;29.50;19.83;;;3.30;99.90;;;;;;4956947;28;20264;-69
2020/12/05 17:29:31;;;;;;;28.90;19.02;;;3.30;99.90;;;;;;4957062;28;20206;-69
2020/12/05 17:31:58;;;;;;;23.35;17.60;;;3.30;99.90;;;;;;4956261;28;20304;-69
2020/12/05 17:34:24;;;;;;;29.65;19.60;;;3.20;99.90;;;;;;4957109;28;20634;-69
2020/12/05 17:36:53;;;;;;;24.85;16.88;;;3.20;99.90;;;;;;4956973;28;20684;-69